Time;durP1;ratioP1;P1;durP2;ratioP2;P2;SDS_P1;SDS_P2;PMS_P1;PMS_P2;Temp;Humidity;BMP_temperature;BMP_pressure;BME280_temperature;BME280_humidity;BME280_pressure;Samples;Min_cycle;Max_cycle;Signal;HPM_P1;HPM_P2
2020/12/11 00:00:01;;;;;;;0.50;0.50;;;;;;;1.42;93.24;100279.19;5043812;28;20443;-65
2020/12/11 00:02:28;;;;;;;7.10;1.17;;;;;;;1.39;91.67;100279.69;5044208;28;20491;-65
2020/12/11 00:04:54;;;;;;;0.40;0.30;;;;;;;1.37;91.80;100273.75;5044014;28;20812;-64
2020/12/11 00:07:20;;;;;;;0.50;0.37;;;;;;;1.26;92.60;100262.97;5043168;28;20463;-64
2020/12/11 00:09:46;;;;;;;4.13;3.73;;;;;;;1.34;91.58;100277.75;5044369;28;20439;-65
2020/12/11 00:12:13;;;;;;;0.83;0.83;;;;;;;1.36;91.36;100269.50;5043439;28;20869;-65
2020/12/11 00:14:39;;;;;;;1.33;1.23;;;;;;;1.42;90.90;100273.84;5042775;28;20451;-65
2020/12/11 00:17:05;;;;;;;0.50;0.50;;;;;;;1.37;91.33;100266.56;5043798;28;20478;-65
2020/12/11 00:19:32;;;;;;;0.40;0.40;;;;;;;1.37;91.11;100258.56;5042251;28;21013;-65
2020/12/11 00:22:01;;;;;;;0.50;0.47;;;;;;;1.42;91.48;100272.00;5042975;28;20436;-65
2020/12/11 00:24:27;;;;;;;9.10;1.57;;;;;;;1.42;91.69;100263.19;5043698;28;20447;-65
2020/12/11 00:26:53;;;;;;;0.67;0.50;;;;;;;1.48;91.85;100267.50;5042600;28;20489;-65
2020/12/11 00:29:19;;;;;;;1.17;0.50;;;;;;;1.44;91.43;100264.53;5042425;28;20493;-62
2020/12/11 00:31:45;;;;;;;0.40;0.30;;;;;;;1.41;91.41;100270.34;5043000;28;20469;-65
2020/12/11 00:34:12;;;;;;;0.50;0.50;;;;;;;1.37;91.89;100260.44;5042549;28;20489;-65
2020/12/11 00:36:40;;;;;;;0.40;0.30;;;;;;;1.40;92.61;100257.28;5043313;28;20460;-64
2020/12/11 00:39:06;;;;;;;0.83;0.50;;;;;;;1.43;92.90;100254.13;5042664;28;20535;-66
2020/12/11 00:41:33;;;;;;;4.67;0.57;;;;;;;1.44;92.58;100256.53;5043038;28;20447;-64
2020/12/11 00:43:59;;;;;;;0.70;0.50;;;;;;;1.25;94.24;100250.69;5043467;28;20540;-64
2020/12/11 00:46:25;;;;;;;3.20;0.77;;;;;;;1.30;94.12;100236.63;5044212;28;20494;-65
2020/12/11 00:48:52;;;;;;;0.70;0.60;;;;;;;1.38;93.84;100240.72;5044317;28;20443;-65
2020/12/11 00:51:19;;;;;;;1.43;1.33;;;;;;;1.36;93.45;100242.81;5045267;28;20443;-65
2020/12/11 00:53:47;;;;;;;0.53;0.40;;;;;;;1.36;93.54;100232.13;5043827;28;20540;-65
2020/12/11 00:56:13;;;;;;;0.40;0.40;;;;;;;1.39;93.15;100231.66;5043674;28;20517;-65
2020/12/11 00:58:40;;;;;;;0.40;0.30;;;;;;;1.31;93.91;100237.41;5043841;28;20439;-64
2020/12/11 01:01:06;;;;;;;2.22;2.05;;;;;;;1.26;94.22;100241.63;5043084;28;20440;-65
2020/12/11 01:03:32;;;;;;;0.57;0.57;;;;;;;1.32;93.80;100221.16;5043005;28;20604;-65
2020/12/11 01:05:58;;;;;;;0.40;0.30;;;;;;;1.33;93.76;100214.78;5042867;28;20463;-64
2020/12/11 01:08:25;;;;;;;1.07;0.97;;;;;;;1.33;93.83;100224.63;5043869;28;20451;-65
2020/12/11 01:10:52;;;;;;;0.40;0.30;;;;;;;1.38;93.14;100222.84;5043372;28;20433;-64
2020/12/11 01:13:18;;;;;;;1.10;1.00;;;;;;;1.39;92.37;100219.09;5043438;28;20478;-65
2020/12/11 01:15:44;;;;;;;0.40;0.30;;;;;;;1.37;91.42;100220.41;5042894;28;20932;-65
2020/12/11 01:18:10;;;;;;;0.80;0.80;;;;;;;1.32;91.19;100217.69;5043034;28;20447;-65
2020/12/11 01:20:37;;;;;;;0.40;0.30;;;;;;;1.35;91.60;100215.31;5043549;28;20501;-65
2020/12/11 01:23:03;;;;;;;0.40;0.30;;;;;;;1.38;91.24;100211.38;5042495;28;20495;-64
2020/12/11 01:25:29;;;;;;;1.33;1.23;;;;;;;1.39;91.16;100211.09;5042886;28;20863;-65
2020/12/11 01:27:56;;;;;;;0.40;0.30;;;;;;;1.45;91.28;100218.09;5042780;28;20471;-64
2020/12/11 01:30:22;;;;;;;0.70;0.63;;;;;;;1.48;91.44;100214.94;5032925;28;20452;-64
2020/12/11 01:32:48;;;;;;;0.50;0.50;;;;;;;1.52;91.07;100223.25;5024642;28;20856;-64
2020/12/11 01:35:15;;;;;;;0.70;0.70;;;;;;;1.42;90.98;100217.81;5027091;28;20448;-65
2020/12/11 01:37:41;;;;;;;9.40;1.50;;;;;;;1.39;91.39;100219.09;5026062;28;20463;-65
2020/12/11 01:40:07;;;;;;;0.67;0.50;;;;;;;1.37;90.73;100217.72;5026265;28;20470;-64
2020/12/11 01:42:34;;;;;;;0.50;0.50;;;;;;;1.41;91.16;100227.66;5026288;28;20492;-64
2020/12/11 01:45:01;;;;;;;2.40;0.97;;;;;;;1.36;90.71;100208.13;5025349;28;20498;-65
2020/12/11 01:47:27;;;;;;;2.23;2.03;;;;;;;1.35;91.44;100217.19;5026561;28;20533;-65
2020/12/11 01:49:54;;;;;;;0.57;0.57;;;;;;;1.21;91.61;100212.22;5025960;28;20446;-65
2020/12/11 01:52:21;;;;;;;0.40;0.30;;;;;;;1.30;91.77;100209.94;5024815;28;20464;-65
2020/12/11 01:54:48;;;;;;;1.73;0.93;;;;;;;1.27;91.25;100213.91;5025163;28;20490;-65
2020/12/11 01:57:21;;;;;;;0.73;0.73;;;;;;;1.25;91.73;100208.00;5025036;28;20522;-65
2020/12/11 01:59:51;;;;;;;0.50;0.40;;;;;;;1.30;91.05;100207.28;5026096;28;20425;-65
2020/12/11 02:02:19;;;;;;;0.90;0.90;;;;;;;1.30;91.27;100198.47;5025582;28;20434;-65
2020/12/11 02:04:45;;;;;;;1.53;1.43;;;;;;;1.35;91.63;100196.66;5025032;28;20448;-65
2020/12/11 02:07:12;;;;;;;0.40;0.30;;;;;;;1.36;92.40;100192.91;5025073;28;20522;-65
2020/12/11 02:09:38;;;;;;;0.93;0.93;;;;;;;1.37;92.71;100189.19;5025682;28;20476;-64
2020/12/11 02:12:05;;;;;;;0.73;0.73;;;;;;;1.42;92.77;100186.59;5025502;28;20448;-65
2020/12/11 02:14:32;;;;;;;0.40;0.40;;;;;;;1.45;92.98;100196.75;5026653;28;21020;-65
2020/12/11 02:16:59;;;;;;;21.07;2.87;;;;;;;1.47;92.60;100194.66;5025489;28;20476;-65
2020/12/11 02:19:29;;;;;;;0.80;0.80;;;;;;;1.40;93.19;100185.22;5025596;28;20444;-64
2020/12/11 02:21:58;;;;;;;0.50;0.50;;;;;;;1.46;92.98;100184.22;5025264;28;20444;-65
2020/12/11 02:24:24;;;;;;;0.60;0.60;;;;;;;1.49;92.73;100181.06;5025664;28;20487;-64
2020/12/11 02:26:53;;;;;;;2.77;1.63;;;;;;;1.49;92.71;100183.72;5026050;28;20522;-65
2020/12/11 02:29:20;;;;;;;3.23;1.63;;;;;;;1.46;93.04;100187.72;5026201;28;20448;-62
2020/12/11 02:31:46;;;;;;;4.47;1.90;;;;;;;1.48;92.88;100182.13;5025537;28;20436;-66
2020/12/11 02:34:12;;;;;;;0.40;0.30;;;;;;;1.46;93.35;100182.38;5025420;28;20432;-65
2020/12/11 02:36:38;;;;;;;4.20;2.33;;;;;;;1.51;93.17;100179.75;5025116;28;20895;-64
2020/12/11 02:39:05;;;;;;;0.50;0.50;;;;;;;1.47;92.93;100167.16;5025626;28;20448;-65
2020/12/11 02:41:32;;;;;;;0.50;0.50;;;;;;;1.44;92.12;100168.47;5025685;28;20498;-64
2020/12/11 02:43:58;;;;;;;0.60;0.60;;;;;;;1.40;92.35;100163.88;5025019;28;20487;-65
2020/12/11 02:46:24;;;;;;;2.23;2.13;;;;;;;1.40;92.05;100162.00;5026310;28;20459;-64
2020/12/11 02:48:50;;;;;;;4.47;2.80;;;;;;;1.37;91.66;100167.03;5025037;28;20475;-65
2020/12/11 02:51:16;;;;;;;1.47;1.37;;;;;;;1.32;91.69;100154.44;5026178;28;20853;-65
2020/12/11 02:53:43;;;;;;;0.40;0.30;;;;;;;1.36;91.62;100147.56;5025009;28;20448;-65
2020/12/11 02:56:10;;;;;;;0.40;0.30;;;;;;;1.37;91.72;100141.16;5024818;28;20468;-65
2020/12/11 02:58:36;;;;;;;0.40;0.30;;;;;;;1.39;91.01;100143.59;5025007;28;20942;-65
2020/12/11 03:01:02;;;;;;;0.50;0.47;;;;;;;1.40;90.63;100148.69;5024929;28;20495;-64
2020/12/11 03:03:28;;;;;;;0.50;0.50;;;;;;;1.36;91.26;100130.75;5025135;28;21154;-65
2020/12/11 03:05:54;;;;;;;2.20;2.10;;;;;;;1.35;90.93;100135.28;5025119;28;20452;-65
2020/12/11 03:08:21;;;;;;;1.27;0.60;;;;;;;1.37;90.96;100130.50;5025191;28;20456;-65
2020/12/11 03:10:47;;;;;;;0.40;0.30;;;;;;;1.36;91.30;100128.88;5023646;28;20862;-65
2020/12/11 03:13:14;;;;;;;0.40;0.40;;;;;;;1.43;91.38;100123.38;5024136;28;20471;-65
2020/12/11 03:15:40;;;;;;;2.17;2.07;;;;;;;1.46;91.53;100130.84;5024446;28;20448;-65
2020/12/11 03:18:06;;;;;;;0.40;0.30;;;;;;;1.50;91.43;100131.97;5023542;28;20511;-64
2020/12/11 03:20:32;;;;;;;2.83;1.57;;;;;;;1.52;91.13;100130.66;5023619;28;20491;-64
2020/12/11 03:22:58;;;;;;;0.40;0.30;;;;;;;1.47;91.14;100125.28;5023534;28;20558;-65
2020/12/11 03:25:25;;;;;;;2.00;1.23;;;;;;;1.43;91.21;100126.84;5023448;28;20440;-65
2020/12/11 03:27:51;;;;;;;0.70;0.70;;;;;;;1.46;91.11;100125.50;5023239;28;20460;-64
2020/12/11 03:30:18;;;;;;;0.70;0.70;;;;;;;1.37;92.35;100119.00;5023367;28;20455;-64
2020/12/11 03:32:44;;;;;;;1.50;0.77;;;;;;;1.42;92.42;100121.75;5024525;28;20447;-66
2020/12/11 03:35:10;;;;;;;0.40;0.40;;;;;;;1.46;91.63;100123.69;5024204;28;20468;-66
2020/12/11 03:37:36;;;;;;;4.13;1.43;;;;;;;1.44;92.09;100127.63;5024199;28;20514;-66
2020/12/11 03:40:04;;;;;;;0.40;0.30;;;;;;;1.45;91.97;100124.72;5023904;28;20477;-65
2020/12/11 03:42:30;;;;;;;1.27;1.23;;;;;;;1.47;91.79;100127.94;5023656;28;20475;-65
2020/12/11 03:44:56;;;;;;;0.40;0.30;;;;;;;1.44;92.09;100124.97;5023180;28;20445;-65
2020/12/11 03:47:23;;;;;;;0.77;0.40;;;;;;;1.40;91.86;100118.53;5022712;28;20460;-65
2020/12/11 03:49:49;;;;;;;0.40;0.30;;;;;;;1.37;91.93;100116.34;5022883;28;20471;-65
2020/12/11 03:52:16;;;;;;;3.43;1.90;;;;;;;1.32;91.33;100113.63;5021856;28;20454;-65
2020/12/11 03:54:42;;;;;;;0.40;0.30;;;;;;;1.38;91.54;100115.31;5020196;28;20502;-64
2020/12/11 03:57:09;;;;;;;0.50;0.40;;;;;;;1.33;91.29;100101.91;5021689;28;20468;-64
2020/12/11 03:59:35;;;;;;;3.33;3.13;;;;;;;1.36;91.45;100107.53;5022216;28;20436;-64
2020/12/11 04:02:01;;;;;;;0.40;0.30;;;;;;;1.34;91.54;100103.53;5022783;28;20443;-65
2020/12/11 04:04:28;;;;;;;1.33;1.00;;;;;;;1.21;91.81;100094.06;5023381;28;20539;-64
2020/12/11 04:06:54;;;;;;;0.40;0.40;;;;;;;1.15;91.97;100090.53;5025495;28;20528;-65
2020/12/11 04:09:20;;;;;;;0.70;0.67;;;;;;;1.30;91.39;100097.09;5018326;28;20443;-63
2020/12/11 04:11:47;;;;;;;0.40;0.30;;;;;;;1.30;91.05;100097.09;5015323;28;20475;-65
2020/12/11 04:14:13;;;;;;;0.80;0.63;;;;;;;1.29;90.73;100096.28;5014307;28;20523;-67
2020/12/11 04:16:39;;;;;;;0.40;0.40;;;;;;;1.33;89.69;100096.56;5019677;28;20983;-65
2020/12/11 04:19:05;;;;;;;2.30;2.10;;;;;;;1.30;90.66;100089.88;5022480;28;20475;-65
2020/12/11 04:21:32;;;;;;;0.40;0.30;;;;;;;1.33;91.33;100086.72;5022726;28;20452;-64
2020/12/11 04:23:58;;;;;;;2.70;1.53;;;;;;;1.32;91.64;100087.75;5022770;28;21071;-65
2020/12/11 04:26:25;;;;;;;0.40;0.30;;;;;;;1.36;91.59;100086.19;5022417;28;20533;-65
2020/12/11 04:28:51;;;;;;;0.40;0.30;;;;;;;1.38;92.05;100091.31;5022705;28;20869;-65
2020/12/11 04:31:19;;;;;;;0.50;0.50;;;;;;;1.37;92.17;100087.81;5021806;28;20451;-66
2020/12/11 04:33:45;;;;;;;0.90;0.80;;;;;;;1.31;92.05;100088.03;5022286;28;20450;-66
2020/12/11 04:36:16;;;;;;;3.33;1.80;;;;;;;1.34;92.14;100084.84;5022538;28;20468;-66
2020/12/11 04:38:44;;;;;;;1.17;1.07;;;;;;;1.36;92.20;100069.38;5022955;28;20447;-65
2020/12/11 04:41:13;;;;;;;2.70;0.77;;;;;;;1.46;91.94;100080.16;5022952;28;20463;-65
2020/12/11 04:43:40;;;;;;;1.13;1.13;;;;;;;1.41;92.34;100083.56;5022928;28;20518;-65
2020/12/11 04:48:34;;;;;;;0.40;0.30;;;;;;;1.46;92.52;100072.13;5070864;28;20472;-72
2020/12/11 04:51:01;;;;;;;3.13;0.67;;;;;;;1.58;91.50;100072.00;5072988;28;20486;-72
2020/12/11 04:53:33;;;;;;;0.40;0.40;;;;;;;1.60;91.14;100064.53;5073035;28;20578;-72
2020/12/11 04:56:01;;;;;;;0.83;0.77;;;;;;;1.53;89.92;100062.06;5072917;28;20481;-72
2020/12/11 04:58:30;;;;;;;9.60;1.50;;;;;;;1.47;90.02;100061.22;5072199;28;20509;-72
2020/12/11 05:01:01;;;;;;;3.30;0.77;;;;;;;1.52;89.18;100065.81;5072885;28;20476;-72
2020/12/11 05:03:31;;;;;;;0.80;0.40;;;;;;;1.43;89.54;100056.66;5072920;28;20497;-72
2020/12/11 05:05:57;;;;;;;0.97;0.90;;;;;;;1.43;90.26;100054.00;5074039;28;20451;-72
2020/12/11 05:08:23;;;;;;;2.90;2.60;;;;;;;1.44;90.03;100044.91;5076470;28;21002;-72
2020/12/11 05:10:50;;;;;;;1.23;1.13;;;;;;;1.44;89.60;100034.25;5076473;28;20441;-72
2020/12/11 05:13:18;;;;;;;0.40;0.30;;;;;;;1.44;89.67;100024.38;5076378;28;20440;-72
2020/12/11 05:16:05;;;;;;;1.03;0.87;;;;;;;1.40;90.57;100014.47;5076707;28;20448;-72
2020/12/11 05:18:31;;;;;;;0.70;0.70;;;;;;;1.48;90.52;100017.47;5076227;28;20473;-72
2020/12/11 05:21:13;;;;;;;1.60;1.50;;;;;;;1.38;90.99;100004.06;5076598;28;20487;-72
2020/12/11 05:23:54;;;;;;;2.60;1.47;;;;;;;1.48;90.56;100014.00;5076177;28;20473;-73
2020/12/11 05:26:20;;;;;;;0.93;0.60;;;;;;;1.42;90.66;100017.69;5076412;28;20453;-72
2020/12/11 05:28:48;;;;;;;2.50;2.20;;;;;;;1.36;89.23;100016.03;5076103;28;20433;-72
2020/12/11 05:31:14;;;;;;;0.77;0.77;;;;;;;1.36;89.24;100014.16;5076297;28;20487;-72
2020/12/11 05:34:07;;;;;;;0.60;0.60;;;;;;;1.41;89.08;100018.75;5076370;28;20556;-72
2020/12/11 05:36:46;;;;;;;1.20;1.10;;;;;;;1.44;89.71;100023.56;5076206;28;20855;-72
2020/12/11 05:39:13;;;;;;;0.40;0.30;;;;;;;1.49;89.38;100026.28;5076217;28;20447;-72
2020/12/11 05:41:39;;;;;;;0.50;0.50;;;;;;;1.38;89.71;100024.59;5076185;28;20819;-70
2020/12/11 05:44:38;;;;;;;0.40;0.30;;;;;;;1.38;90.59;100030.75;5076075;28;20516;-70
2020/12/11 05:47:19;;;;;;;0.40;0.30;;;;;;;1.43;90.36;100030.78;5076001;28;20469;-70
2020/12/11 05:49:45;;;;;;;0.40;0.30;;;;;;;1.42;90.97;100031.03;5075798;28;20838;-70
2020/12/11 05:52:14;;;;;;;2.20;0.80;;;;;;;1.42;91.42;100025.69;5075710;28;20441;-70
2020/12/11 05:54:47;;;;;;;0.50;0.40;;;;;;;1.44;91.90;100024.38;5075703;28;20472;-69
2020/12/11 05:57:14;;;;;;;0.40;0.30;;;;;;;1.48;92.24;100022.81;5075864;28;20457;-69
2020/12/11 05:59:42;;;;;;;0.73;0.70;;;;;;;1.59;91.78;100022.88;5075847;28;20461;-69
2020/12/11 06:02:09;;;;;;;0.40;0.30;;;;;;;1.51;91.81;100013.50;5075822;28;20490;-70
2020/12/11 06:04:37;;;;;;;0.40;0.30;;;;;;;1.56;91.87;100021.53;5075429;28;20542;-70
2020/12/11 06:07:10;;;;;;;0.40;0.30;;;;;;;1.56;91.55;100024.22;5075355;28;20838;-70
2020/12/11 06:09:38;;;;;;;5.10;1.03;;;;;;;1.64;91.47;100022.91;5075818;28;20418;-70
2020/12/11 06:12:06;;;;;;;1.43;1.33;;;;;;;1.60;91.54;100027.19;5075344;28;21020;-70
2020/12/11 06:14:41;;;;;;;5.00;2.43;;;;;;;1.61;91.63;100018.91;5075669;28;20457;-71
2020/12/11 06:17:08;;;;;;;0.70;0.60;;;;;;;1.65;90.98;100027.22;5074761;28;20483;-70
2020/12/11 06:19:39;;;;;;;0.50;0.50;;;;;;;1.56;91.52;100024.22;5075525;28;20791;-70
2020/12/11 06:22:06;;;;;;;2.50;0.93;;;;;;;1.56;92.00;100024.22;5075220;28;20966;-70
2020/12/11 06:24:32;;;;;;;5.30;0.70;;;;;;;1.65;91.75;100020.00;5075079;28;20994;-69
2020/12/11 06:26:59;;;;;;;1.43;1.00;;;;;;;1.61;90.36;100010.09;5075282;28;20525;-69
2020/12/11 06:29:27;;;;;;;0.40;0.30;;;;;;;1.56;89.45;100007.41;5075358;28;20435;-69
2020/12/11 06:31:53;;;;;;;7.63;2.73;;;;;;;1.51;89.54;100000.97;5074956;28;20441;-69
2020/12/11 06:34:21;;;;;;;0.40;0.30;;;;;;;1.50;90.28;100001.19;5075202;28;20429;-70
2020/12/11 06:36:48;;;;;;;1.53;1.43;;;;;;;1.42;90.87;99996.34;5074838;28;20875;-70
2020/12/11 06:39:40;;;;;;;0.40;0.30;;;;;;;1.46;90.13;99984.91;5075135;28;20435;-70
2020/12/11 06:42:06;;;;;;;0.50;0.40;;;;;;;1.49;90.57;99995.06;5074857;28;20431;-69
2020/12/11 06:44:33;;;;;;;0.40;0.40;;;;;;;1.54;90.68;100002.28;5074969;28;20851;-69
2020/12/11 06:47:07;;;;;;;2.60;1.47;;;;;;;1.49;90.71;99995.06;5074466;28;20504;-69
2020/12/11 06:49:34;;;;;;;0.40;0.30;;;;;;;1.43;91.13;99996.09;5074608;28;20441;-69
2020/12/11 06:52:12;;;;;;;2.60;2.10;;;;;;;1.40;90.50;99988.59;5074540;28;20445;-69
2020/12/11 06:54:54;;;;;;;5.70;1.60;;;;;;;1.42;91.10;99986.47;5074543;28;20439;-70
2020/12/11 06:57:48;;;;;;;0.70;0.67;;;;;;;1.43;90.25;99987.28;5074320;28;20461;-71
2020/12/11 07:00:32;;;;;;;0.47;0.43;;;;;;;1.36;91.02;99978.69;5074732;28;20471;-71
2020/12/11 07:03:35;;;;;;;0.60;0.53;;;;;;;1.35;91.66;99980.53;5074339;28;20895;-71
2020/12/11 07:06:09;;;;;;;0.53;0.53;;;;;;;1.34;92.39;99970.94;5074257;28;20417;-71
2020/12/11 07:08:37;;;;;;;0.50;0.43;;;;;;;1.46;92.13;99978.75;5074284;28;20873;-71
2020/12/11 07:11:12;;;;;;;7.03;1.10;;;;;;;1.48;92.56;99979.31;5074461;28;20523;-72
2020/12/11 07:13:49;;;;;;;0.70;0.50;;;;;;;1.54;92.27;99975.59;5074468;28;20524;-72
2020/12/11 07:16:15;;;;;;;0.50;0.40;;;;;;;1.57;92.29;99975.09;5073957;28;20931;-72
2020/12/11 07:18:42;;;;;;;1.23;0.60;;;;;;;1.64;91.80;99970.38;5073966;28;20471;-71
2020/12/11 07:21:09;;;;;;;2.60;0.67;;;;;;;1.63;92.10;99974.06;5073897;28;20495;-71
2020/12/11 07:23:36;;;;;;;0.67;0.67;;;;;;;1.73;91.68;99973.34;5073834;28;21017;-72
2020/12/11 07:26:04;;;;;;;2.67;1.33;;;;;;;1.67;91.47;99969.03;5073836;28;20473;-72
2020/12/11 07:28:30;;;;;;;8.43;1.20;;;;;;;1.67;91.51;99963.69;5073600;28;20483;-68
2020/12/11 07:30:57;;;;;;;1.47;1.20;;;;;;;1.67;91.78;99967.16;5073546;28;20432;-68
2020/12/11 07:33:30;;;;;;;4.30;2.60;;;;;;;1.71;92.31;99967.44;5073968;28;20432;-68
2020/12/11 07:36:00;;;;;;;0.70;0.70;;;;;;;1.75;91.25;99969.34;5074007;28;20425;-68
2020/12/11 07:38:27;;;;;;;2.93;2.50;;;;;;;1.82;90.57;99971.81;5073868;28;20514;-68
2020/12/11 07:40:55;;;;;;;1.10;1.07;;;;;;;1.76;89.96;99968.28;5073865;28;20437;-68
2020/12/11 07:43:21;;;;;;;4.20;0.93;;;;;;;1.80;89.99;99973.13;5073808;28;20485;-69
2020/12/11 07:45:48;;;;;;;0.77;0.77;;;;;;;1.69;90.25;99967.72;5073501;28;20536;-70
2020/12/11 07:48:15;;;;;;;0.97;0.97;;;;;;;1.62;90.72;99969.00;5073343;28;21003;-69
2020/12/11 07:50:42;;;;;;;1.27;1.27;;;;;;;1.73;90.22;99963.47;5073413;28;20476;-69
2020/12/11 07:53:10;;;;;;;0.40;0.30;;;;;;;1.82;90.08;99965.66;5073638;28;20444;-70
2020/12/11 07:55:37;;;;;;;0.87;0.80;;;;;;;1.82;89.74;99973.69;5073371;28;20781;-69
2020/12/11 07:58:04;;;;;;;0.43;0.40;;;;;;;1.81;89.87;99966.72;5073496;28;20489;-69
2020/12/11 08:00:34;;;;;;;0.40;0.30;;;;;;;1.79;90.16;99976.84;5073264;28;20498;-68
2020/12/11 08:03:05;;;;;;;0.87;0.77;;;;;;;1.80;89.90;99975.78;5073556;28;20425;-68
2020/12/11 08:05:33;;;;;;;0.40;0.40;;;;;;;1.88;89.47;99973.44;5073888;28;20422;-68
2020/12/11 08:07:59;;;;;;;1.13;1.07;;;;;;;1.90;88.96;99967.81;5073520;28;20464;-68
2020/12/11 08:10:35;;;;;;;0.80;0.80;;;;;;;1.94;89.02;99968.91;5073487;28;20453;-68
2020/12/11 08:13:10;;;;;;;1.60;1.20;;;;;;;1.90;88.57;99968.63;5073140;28;20921;-67
2020/12/11 08:15:36;;;;;;;5.33;1.90;;;;;;;1.89;89.40;99971.56;5073283;28;20424;-69
2020/12/11 08:18:10;;;;;;;0.53;0.50;;;;;;;1.90;89.44;99978.50;5073884;28;20496;-69
2020/12/11 08:20:47;;;;;;;0.40;0.33;;;;;;;1.99;89.82;99985.78;5073470;28;20448;-68
2020/12/11 08:23:21;;;;;;;15.17;2.60;;;;;;;1.98;89.57;99978.81;5072948;28;20467;-68
2020/12/11 08:25:47;;;;;;;2.67;0.83;;;;;;;1.91;89.48;99985.47;5073411;28;20964;-68
2020/12/11 08:28:17;;;;;;;0.40;0.30;;;;;;;1.95;89.55;99986.56;5073088;28;20518;-68
2020/12/11 08:30:43;;;;;;;1.43;1.40;;;;;;;1.91;89.15;99988.94;5072928;28;20433;-68
2020/12/11 08:33:11;;;;;;;2.83;0.83;;;;;;;1.97;89.25;99987.91;5073447;28;20437;-68
2020/12/11 08:35:38;;;;;;;3.80;2.47;;;;;;;1.93;89.26;99984.13;5072906;28;20467;-68
2020/12/11 08:38:06;;;;;;;0.60;0.60;;;;;;;1.97;89.15;99989.78;5072833;28;20973;-68
2020/12/11 08:40:45;;;;;;;0.77;0.77;;;;;;;1.96;89.43;99977.50;5072778;28;20492;-68
2020/12/11 08:43:17;;;;;;;0.50;0.43;;;;;;;1.98;89.47;99970.00;5072761;28;20782;-69
2020/12/11 08:45:57;;;;;;;0.57;0.50;;;;;;;2.08;89.03;99977.25;5072789;28;20439;-69
2020/12/11 08:48:36;;;;;;;15.33;1.67;;;;;;;2.07;88.66;99968.44;5072885;28;20847;-70
2020/12/11 08:51:04;;;;;;;0.40;0.30;;;;;;;2.10;89.33;99969.81;5073085;28;20516;-71
2020/12/11 08:53:35;;;;;;;0.50;0.50;;;;;;;2.12;89.19;99965.81;5073032;28;20437;-70
2020/12/11 08:56:01;;;;;;;0.57;0.53;;;;;;;2.24;89.01;99966.38;5072993;28;20426;-70
2020/12/11 08:58:27;;;;;;;0.90;0.90;;;;;;;2.18;89.13;99967.44;5072629;28;20974;-71
2020/12/11 09:00:54;;;;;;;0.53;0.53;;;;;;;2.30;88.36;99967.22;5072636;28;20514;-70
2020/12/11 09:03:21;;;;;;;6.33;2.13;;;;;;;2.37;88.57;99966.97;5072503;28;20481;-71
2020/12/11 09:05:47;;;;;;;0.70;0.70;;;;;;;2.40;87.82;99961.13;5072579;28;20862;-71
2020/12/11 09:08:13;;;;;;;0.77;0.77;;;;;;;2.46;87.52;99960.06;5072491;28;20497;-71
2020/12/11 09:10:39;;;;;;;2.03;0.80;;;;;;;2.39;88.10;99965.66;5072508;28;20851;-71
2020/12/11 09:13:06;;;;;;;3.90;2.57;;;;;;;2.39;87.94;99970.19;5072552;28;20823;-71
2020/12/11 09:15:33;;;;;;;0.50;0.50;;;;;;;2.38;87.85;99965.91;5072540;28;20487;-71
2020/12/11 09:18:00;;;;;;;0.40;0.40;;;;;;;2.30;88.34;99961.06;5072388;28;20490;-71
2020/12/11 09:20:26;;;;;;;1.70;1.43;;;;;;;2.32;88.20;99953.59;5072785;28;20443;-71
2020/12/11 09:22:54;;;;;;;0.60;0.60;;;;;;;2.33;87.75;99963.22;5072445;28;20447;-71
2020/12/11 09:25:20;;;;;;;1.37;0.70;;;;;;;2.35;88.29;99953.09;5072662;28;20480;-71
2020/12/11 09:27:46;;;;;;;0.70;0.70;;;;;;;2.38;88.33;99948.00;5072670;28;20469;-71
2020/12/11 09:30:21;;;;;;;0.40;0.40;;;;;;;2.38;88.15;99953.34;5072308;28;20942;-71
2020/12/11 09:32:55;;;;;;;0.40;0.30;;;;;;;2.37;88.38;99951.75;5072639;28;20429;-71
2020/12/11 09:35:24;;;;;;;0.70;0.70;;;;;;;2.41;88.36;99949.34;5072353;28;20516;-70
2020/12/11 09:37:50;;;;;;;0.40;0.40;;;;;;;2.45;88.10;99939.75;5072137;28;20457;-69
2020/12/11 09:40:18;;;;;;;1.60;1.50;;;;;;;2.46;87.75;99942.16;5071891;28;20490;-70
2020/12/11 09:45:29;;;;;;;2.40;0.60;;;;;;;2.43;87.23;99931.19;5059753;28;20484;-70
2020/12/11 09:48:03;;;;;;;0.50;0.40;;;;;;;2.43;86.35;99923.16;5071454;28;20912;-71
2020/12/11 09:50:37;;;;;;;0.40;0.30;;;;;;;2.50;86.72;99913.84;5071537;28;20467;-70
2020/12/11 09:53:12;;;;;;;2.10;0.83;;;;;;;2.49;86.60;99906.09;5073488;28;20539;-70
2020/12/11 09:55:42;;;;;;;0.53;0.50;;;;;;;2.33;86.03;99902.56;5075158;28;20475;-70
2020/12/11 09:58:08;;;;;;;2.93;1.43;;;;;;;2.31;87.23;99906.59;5075349;28;20460;-70
2020/12/11 10:00:35;;;;;;;1.63;1.53;;;;;;;2.34;87.79;99906.03;5075111;28;20445;-70
2020/12/11 10:03:03;;;;;;;0.40;0.30;;;;;;;2.37;88.02;99894.84;5074863;28;20441;-70
2020/12/11 10:05:30;;;;;;;1.43;1.33;;;;;;;2.38;88.09;99897.22;5074892;28;20444;-70
2020/12/11 10:07:56;;;;;;;0.80;0.80;;;;;;;2.38;87.53;99888.41;5074958;28;20818;-70
2020/12/11 10:10:23;;;;;;;0.70;0.63;;;;;;;2.32;87.97;99881.47;5075168;28;20495;-70
2020/12/11 10:12:50;;;;;;;0.40;0.30;;;;;;;2.22;87.96;99882.25;5074978;28;20493;-70
2020/12/11 10:15:20;;;;;;;1.00;1.00;;;;;;;2.24;88.35;99878.22;5074902;28;20435;-70
2020/12/11 10:17:47;;;;;;;2.10;0.83;;;;;;;2.23;88.36;99876.63;5074952;28;20466;-70
2020/12/11 10:20:18;;;;;;;1.57;1.43;;;;;;;2.19;88.55;99869.41;5074698;28;20440;-70
2020/12/11 10:22:46;;;;;;;2.17;0.70;;;;;;;2.36;88.80;99858.50;5074762;28;20428;-70
2020/12/11 10:25:13;;;;;;;0.50;0.40;;;;;;;2.39;88.62;99855.28;5074783;28;20481;-70
2020/12/11 10:27:39;;;;;;;2.90;0.60;;;;;;;2.42;88.78;99852.06;5074545;28;21116;-69
2020/12/11 10:30:05;;;;;;;0.90;0.87;;;;;;;2.48;88.26;99854.50;5074444;28;20448;-68
2020/12/11 10:32:31;;;;;;;0.80;0.80;;;;;;;2.56;88.12;99853.16;5074393;28;20468;-70
2020/12/11 10:34:58;;;;;;;0.80;0.60;;;;;;;2.58;87.71;99844.91;5074521;28;20482;-70
2020/12/11 10:37:24;;;;;;;0.70;0.70;;;;;;;2.63;86.87;99837.66;5074177;28;20457;-70
2020/12/11 10:39:51;;;;;;;1.77;0.80;;;;;;;2.61;86.93;99839.81;5074313;28;20447;-70
2020/12/11 10:42:18;;;;;;;1.23;1.23;;;;;;;2.61;86.31;99823.78;5074491;28;20495;-70
2020/12/11 10:44:44;;;;;;;0.50;0.50;;;;;;;2.57;86.52;99825.38;5074398;28;21031;-70
2020/12/11 10:47:10;;;;;;;0.40;0.30;;;;;;;2.49;87.55;99825.91;5073960;28;20488;-70
2020/12/11 10:49:36;;;;;;;4.03;0.60;;;;;;;2.57;87.28;99828.06;5074338;28;20437;-70
2020/12/11 10:52:02;;;;;;;1.23;0.87;;;;;;;2.58;87.06;99818.97;5073993;28;20466;-70
2020/12/11 10:54:28;;;;;;;3.30;3.03;;;;;;;2.48;87.19;99814.41;5074044;28;20490;-70
2020/12/11 10:56:55;;;;;;;1.20;1.03;;;;;;;2.48;87.61;99813.63;5073927;28;21008;-70
2020/12/11 10:59:22;;;;;;;0.40;0.30;;;;;;;2.57;87.76;99812.03;5074395;28;20449;-69
2020/12/11 11:01:49;;;;;;;0.87;0.87;;;;;;;2.66;87.13;99809.63;5073765;28;20440;-70
2020/12/11 11:04:15;;;;;;;1.00;0.60;;;;;;;2.70;87.26;99811.47;5073963;28;20489;-70
2020/12/11 11:06:44;;;;;;;3.37;0.47;;;;;;;2.71;87.23;99804.25;5073249;28;20974;-70
2020/12/11 11:11:56;;;;;;;2.20;2.00;;;;;;;2.85;86.84;99802.66;5072896;28;20475;-70
2020/12/11 11:14:48;;;;;;;0.80;0.80;;;;;;;2.79;86.46;99793.03;5073898;28;20424;-70
2020/12/11 11:20:15;;;;;;;0.40;0.30;;;;;;;2.92;86.06;99781.78;5053158;28;20426;-70
2020/12/11 11:22:52;;;;;;;4.20;1.50;;;;;;;3.02;85.97;99781.75;5073833;28;20456;-69
2020/12/11 11:27:54;;;;;;;0.40;0.30;;;;;;;3.01;86.32;99779.34;5078199;22;20480;-76
2020/12/11 11:30:23;;;;;;;1.17;1.13;;;;;;;2.88;87.02;99778.03;5034521;28;20478;-75
2020/12/11 11:32:50;;;;;;;1.57;1.47;;;;;;;2.92;87.05;99775.59;5025163;28;20884;-74
2020/12/11 11:35:16;;;;;;;1.10;0.60;;;;;;;2.93;87.28;99774.56;5034647;28;20440;-75
2020/12/11 11:37:43;;;;;;;7.40;1.37;;;;;;;3.03;87.28;99780.69;5033735;28;20476;-74
2020/12/11 11:40:09;;;;;;;2.10;1.47;;;;;;;3.08;87.01;99785.22;5034542;28;20470;-74
2020/12/11 11:42:35;;;;;;;1.00;0.90;;;;;;;3.10;86.37;99782.25;5033999;28;20444;-74
2020/12/11 11:45:03;;;;;;;2.87;1.47;;;;;;;2.92;86.68;99770.25;5034151;28;20483;-74
2020/12/11 11:47:30;;;;;;;5.20;1.13;;;;;;;2.99;86.96;99787.63;5033529;28;20455;-74
2020/12/11 11:52:45;;;;;;;0.53;0.53;;;;;;;2.86;86.84;99774.03;5010486;28;20451;-74
2020/12/11 11:55:13;;;;;;;1.80;1.33;;;;;;;2.85;86.53;99778.56;5014310;28;20444;-75
2020/12/11 11:57:40;;;;;;;5.10;0.80;;;;;;;2.81;87.47;99776.72;5014667;28;20985;-74